createdAt,value
2019-04-14T00:01:26.180Z,70.70
2019-04-14T00:04:16.451Z,71.52
2019-04-14T00:06:44.259Z,71.80
2019-04-14T00:09:16.234Z,71.10
2019-04-14T00:11:46.086Z,71.93
2019-04-14T00:14:11.924Z,73.55
2019-04-14T00:16:38.075Z,73.55
2019-04-14T00:19:04.414Z,73.81
2019-04-14T00:21:30.468Z,73.36
2019-04-14T00:23:56.626Z,74.14
2019-04-14T00:26:31.628Z,74.83
2019-04-14T00:28:58.150Z,74.60
2019-04-14T00:31:23.960Z,74.05
2019-04-14T00:33:54.337Z,74.42
2019-04-14T00:36:30.499Z,74.10
2019-04-14T00:38:56.328Z,74.40
2019-04-14T00:41:43.611Z,74.99
2019-04-14T00:44:10.450Z,74.93
2019-04-14T00:46:40.998Z,74.68
2019-04-14T00:49:07.510Z,74.59
2019-04-14T00:51:33.246Z,74.69
2019-04-14T00:54:00.192Z,74.53
2019-04-14T00:56:25.972Z,73.87
2019-04-14T00:58:51.852Z,72.84
2019-04-14T01:01:17.586Z,73.29
2019-04-14T01:03:43.808Z,72.84
2019-04-14T01:06:09.763Z,72.60
2019-04-14T01:08:35.983Z,72.37
2019-04-14T01:11:01.534Z,71.97
2019-04-14T01:13:26.980Z,72.13
2019-04-14T01:16:00.566Z,71.62
2019-04-14T01:18:21.257Z,72.41
2019-04-14T01:20:47.143Z,72.14
2019-04-14T01:23:13.028Z,72.05
2019-04-14T01:25:41.048Z,71.27
2019-04-14T01:28:06.891Z,71.58
2019-04-14T01:30:32.746Z,71.07
2019-04-14T01:32:58.936Z,71.18
2019-04-14T01:35:24.923Z,71.13
2019-04-14T01:37:50.866Z,71.13
2019-04-14T01:40:16.866Z,71.02
2019-04-14T01:42:42.340Z,71.19
2019-04-14T01:45:10.029Z,70.95
2019-04-14T01:47:36.139Z,70.58
2019-04-14T01:50:01.839Z,70.31
2019-04-14T01:52:36.956Z,70.94
2019-04-14T01:55:13.711Z,71.24
2019-04-14T01:58:07.890Z,70.65
2019-04-14T02:00:53.242Z,70.24
2019-04-14T02:03:19.505Z,70.74
2019-04-14T02:05:45.981Z,71.12
2019-04-14T02:08:11.413Z,70.97
2019-04-14T02:10:39.234Z,72.21
2019-04-14T02:13:05.034Z,72.93
2019-04-14T02:15:31.098Z,72.01
2019-04-14T02:17:56.781Z,72.23
2019-04-14T02:20:22.956Z,72.02
2019-04-14T02:22:48.524Z,72.00
2019-04-14T02:25:14.317Z,71.41
2019-04-14T02:27:40.697Z,71.60
2019-04-14T02:30:10.165Z,72.32
2019-04-14T02:33:03.617Z,72.53
2019-04-14T02:35:32.718Z,71.98
2019-04-14T02:38:23.477Z,71.71
2019-04-14T02:40:27.187Z,72.03
2019-04-14T02:42:52.421Z,72.19
2019-04-14T02:45:19.288Z,71.41
2019-04-14T02:48:03.336Z,71.69
2019-04-14T02:52:46.545Z,72.13
2019-04-14T02:55:04.370Z,71.87
2019-04-14T02:57:30.456Z,72.37
2019-04-14T02:59:59.616Z,71.68
2019-04-14T03:02:30.857Z,72.39
2019-04-14T03:04:57.117Z,72.61
2019-04-14T03:07:34.187Z,72.49
2019-04-14T03:09:46.669Z,73.35
2019-04-14T03:12:16.335Z,74.34
2019-04-14T03:14:47.712Z,74.22
2019-04-14T03:17:49.319Z,74.38
2019-04-14T03:22:55.844Z,74.18
2019-04-14T03:25:27.687Z,73.88
2019-04-14T03:36:16.977Z,74.17
2019-04-14T03:38:29.877Z,74.40
2019-04-14T03:40:50.623Z,74.94
2019-04-14T03:43:28.300Z,74.82
2019-04-14T03:45:55.058Z,74.35
2019-04-14T03:50:50.183Z,74.07
2019-04-14T03:55:25.472Z,74.58
2019-04-14T03:57:39.111Z,74.52
2019-04-14T04:00:05.317Z,74.74
2019-04-14T04:02:31.507Z,74.88
2019-04-14T04:04:57.715Z,74.80
2019-04-14T04:07:23.572Z,74.79
2019-04-14T04:09:54.311Z,75.40
2019-04-14T04:12:20.378Z,75.46
2019-04-14T04:14:46.402Z,75.17
2019-04-14T04:17:40.881Z,75.67
2019-04-14T04:20:33.399Z,75.08
2019-04-14T04:23:16.231Z,75.41
2019-04-14T04:26:01.865Z,75.92
2019-04-14T04:28:47.175Z,75.67
2019-04-14T04:31:37.522Z,75.96
2019-04-14T04:34:11.939Z,76.22
2019-04-14T04:36:48.772Z,76.35
2019-04-14T04:39:19.289Z,75.91
2019-04-14T04:41:45.064Z,75.27
2019-04-14T04:44:11.598Z,75.57
2019-04-14T04:46:37.370Z,75.29
2019-04-14T04:49:09.911Z,75.05
2019-04-14T04:51:31.067Z,75.54
2019-04-14T04:53:57.069Z,75.45
2019-04-14T04:56:23.244Z,75.35
2019-04-14T04:58:48.836Z,75.15
2019-04-14T05:01:14.534Z,75.18
2019-04-14T05:03:40.694Z,75.13
2019-04-14T05:06:43.898Z,74.75
2019-04-14T05:09:17.305Z,74.92
2019-04-14T05:11:52.069Z,74.82
2019-04-14T05:14:24.065Z,75.01
2019-04-14T05:16:50.684Z,74.95
2019-04-14T05:19:24.787Z,74.55
2019-04-14T05:21:43.412Z,74.75
2019-04-14T05:24:09.299Z,74.49
2019-04-14T05:26:35.140Z,74.42
2019-04-14T05:29:01.451Z,73.79
2019-04-14T05:31:29.051Z,74.06
2019-04-14T05:33:55.446Z,73.54
2019-04-14T05:36:21.509Z,73.69
2019-04-14T05:38:47.479Z,73.50
2019-04-14T05:41:13.663Z,73.64
2019-04-14T05:43:47.270Z,73.37
2019-04-14T05:46:07.646Z,73.34
2019-04-14T05:48:33.767Z,72.99
2019-04-14T05:51:06.420Z,73.62
2019-04-14T05:53:32.660Z,74.01
2019-04-14T05:56:01.449Z,74.31
2019-04-14T05:58:27.526Z,73.67
2019-04-14T06:00:53.414Z,74.00
2019-04-14T06:03:19.193Z,73.37
2019-04-14T06:05:45.031Z,73.19
2019-04-14T06:08:11.040Z,73.24
2019-04-14T06:10:40.777Z,73.17
2019-04-14T06:13:06.228Z,73.02
2019-04-14T06:15:31.923Z,72.95
2019-04-14T06:17:57.488Z,72.63
2019-04-14T06:20:22.934Z,72.98
2019-04-14T06:22:48.393Z,73.15
2019-04-14T06:25:14.214Z,72.70
2019-04-14T06:27:39.606Z,72.95
2019-04-14T06:30:22.128Z,73.25
2019-04-14T06:32:47.986Z,73.49
2019-04-14T06:35:31.169Z,73.21
2019-04-14T06:38:18.582Z,72.29
2019-04-14T06:40:51.436Z,72.30
2019-04-14T06:43:16.884Z,72.47
2019-04-14T06:45:42.225Z,72.36
2019-04-14T06:48:07.987Z,72.33
2019-04-14T06:50:33.738Z,72.64
2019-04-14T06:53:01.742Z,72.08
2019-04-14T06:55:27.137Z,71.86
2019-04-14T06:57:52.795Z,72.29
2019-04-14T07:00:18.237Z,72.54
2019-04-14T07:02:48.061Z,71.65
2019-04-14T07:05:13.319Z,71.72
2019-04-14T07:07:38.803Z,70.84
2019-04-14T07:10:05.362Z,70.26
2019-04-14T07:12:31.058Z,69.79
2019-04-14T07:14:56.434Z,69.99
2019-04-14T07:17:21.882Z,69.13
2019-04-14T07:19:47.253Z,69.33
2019-04-14T07:22:16.025Z,70.30
2019-04-14T07:24:41.625Z,69.99
2019-04-14T07:27:07.319Z,70.27
2019-04-14T07:29:45.719Z,70.01
2019-04-14T07:32:39.371Z,70.02
2019-04-14T07:35:22.916Z,70.46
2019-04-14T07:38:10.120Z,69.63
2019-04-14T07:40:53.361Z,69.83
2019-04-14T07:43:26.774Z,69.35
2019-04-14T07:46:06.807Z,69.42
2019-04-14T07:48:57.107Z,68.84
2019-04-14T07:51:41.577Z,69.01
2019-04-14T07:54:14.555Z,68.46
2019-04-14T07:56:55.962Z,69.20
2019-04-14T07:59:37.723Z,68.53
2019-04-14T08:02:20.889Z,67.74
2019-04-14T08:04:51.473Z,66.93
2019-04-14T08:07:17.016Z,67.29
2019-04-14T08:09:42.478Z,66.53
2019-04-14T08:12:07.934Z,66.48
2019-04-14T08:14:33.390Z,65.89
2019-04-14T08:16:58.842Z,66.07
2019-04-14T08:19:24.266Z,66.17
2019-04-14T08:21:49.966Z,65.35
2019-04-14T08:24:15.534Z,65.05
2019-04-14T08:26:41.021Z,64.72
2019-04-14T08:29:06.476Z,64.33
2019-04-14T08:31:31.908Z,64.22
2019-04-14T08:33:57.375Z,64.06
2019-04-14T08:36:22.929Z,64.28
2019-04-14T08:38:48.705Z,63.03
2019-04-14T08:41:14.178Z,63.70
2019-04-14T08:43:58.441Z,63.10
2019-04-14T08:46:54.996Z,63.32
2019-04-14T08:49:57.563Z,61.75
2019-04-14T08:52:41.000Z,62.18
2019-04-14T08:55:21.878Z,61.47
2019-04-14T08:58:11.690Z,61.72
2019-04-14T09:01:02.229Z,62.05
2019-04-14T09:03:49.732Z,61.48
2019-04-14T09:06:21.593Z,61.07
2019-04-14T09:08:56.019Z,60.12
2019-04-14T09:11:27.753Z,59.34
2019-04-14T09:13:54.015Z,59.40
2019-04-14T09:16:19.460Z,59.81
2019-04-14T09:18:44.914Z,59.32
2019-04-14T09:21:10.286Z,59.73
2019-04-14T09:23:35.761Z,58.06
2019-04-14T09:26:01.487Z,57.57
2019-04-14T09:28:27.230Z,56.92
2019-04-14T09:30:52.675Z,57.44
2019-04-14T09:33:18.642Z,55.98
2019-04-14T09:35:47.142Z,56.21
2019-04-14T09:38:12.611Z,55.64
2019-04-14T09:40:38.328Z,56.36
2019-04-14T09:43:03.698Z,55.97
2019-04-14T09:45:29.432Z,55.30
2019-04-14T09:47:54.875Z,55.02
2019-04-14T09:50:20.669Z,53.94
2019-04-14T09:52:46.342Z,53.86
2019-04-14T09:55:12.342Z,53.72
2019-04-14T09:57:37.974Z,54.74
2019-04-14T10:00:04.135Z,53.38
2019-04-14T10:02:29.799Z,53.69
2019-04-14T10:04:55.709Z,53.08
2019-04-14T10:07:21.999Z,52.54
2019-04-14T10:09:47.905Z,52.21
2019-04-14T10:12:17.379Z,51.01
2019-04-14T10:14:43.622Z,50.86
2019-04-14T10:17:09.206Z,51.33
2019-04-14T10:19:34.630Z,50.16
2019-04-14T10:22:00.709Z,50.52
2019-04-14T10:24:26.390Z,51.20
2019-04-14T10:26:52.023Z,50.29
2019-04-14T10:29:17.455Z,50.45
2019-04-14T10:31:43.195Z,50.09
2019-04-14T10:34:09.986Z,50.21
2019-04-14T10:36:35.643Z,49.77
2019-04-14T10:39:08.602Z,50.05
2019-04-14T10:41:34.524Z,48.74
2019-04-14T10:44:00.380Z,47.99
2019-04-14T10:46:25.983Z,47.42
2019-04-14T10:48:51.657Z,46.60
2019-04-14T10:51:29.168Z,47.94
2019-04-14T10:53:51.342Z,48.59
2019-04-14T10:56:16.839Z,46.55
2019-04-14T10:58:42.639Z,47.99
2019-04-14T11:01:08.190Z,47.75
2019-04-14T11:03:34.059Z,47.57
2019-04-14T11:06:05.002Z,47.87
2019-04-14T11:08:30.468Z,45.85
2019-04-14T11:10:56.278Z,45.93
2019-04-14T11:13:21.735Z,45.00
2019-04-14T11:15:47.186Z,44.88
2019-04-14T11:18:13.467Z,45.02
2019-04-14T11:20:38.739Z,45.12
2019-04-14T11:23:04.765Z,44.75
2019-04-14T11:25:30.298Z,45.53
2019-04-14T11:27:55.799Z,45.30
2019-04-14T11:30:22.616Z,44.98
2019-04-14T11:33:10.130Z,44.20
2019-04-14T11:35:43.804Z,44.72
2019-04-14T11:38:25.283Z,45.21
2019-04-14T11:40:55.400Z,45.53
2019-04-14T11:43:21.162Z,43.20
2019-04-14T11:45:49.974Z,43.44
2019-04-14T11:48:17.140Z,43.01
2019-04-14T11:50:45.365Z,42.70
2019-04-14T11:53:19.473Z,42.50
2019-04-14T11:55:45.895Z,42.42
2019-04-14T11:58:11.546Z,42.96
2019-04-14T12:00:56.324Z,42.26
2019-04-14T12:03:34.488Z,42.22
2019-04-14T12:06:34.089Z,42.75
2019-04-14T12:09:05.832Z,41.23
2019-04-14T12:11:31.439Z,42.06
2019-04-14T12:13:56.925Z,42.92
2019-04-14T12:16:22.553Z,41.73
2019-04-14T12:18:48.281Z,41.88
2019-04-14T12:21:15.109Z,40.83
2019-04-14T12:23:40.565Z,41.23
2019-04-14T12:26:06.184Z,40.09
2019-04-14T12:28:33.888Z,40.37
2019-04-14T12:30:59.762Z,40.06
2019-04-14T12:33:25.225Z,40.69
2019-04-14T12:35:50.678Z,41.34
2019-04-14T12:38:16.115Z,40.51
2019-04-14T12:40:41.990Z,41.26
2019-04-14T12:43:20.214Z,41.19
2019-04-14T12:46:06.155Z,40.36
2019-04-14T12:48:49.884Z,40.52
2019-04-14T12:51:20.763Z,41.47
2019-04-14T12:53:46.177Z,40.86
2019-04-14T12:56:13.347Z,41.10
2019-04-14T12:58:54.728Z,41.29
2019-04-14T13:01:20.964Z,40.10
2019-04-14T13:03:46.712Z,40.16
2019-04-14T13:06:12.335Z,39.60
2019-04-14T13:08:37.932Z,39.04
2019-04-14T13:11:04.030Z,39.84
2019-04-14T13:13:29.515Z,39.77
2019-04-14T13:15:54.999Z,40.77
2019-04-14T13:18:20.593Z,40.07
2019-04-14T13:20:46.135Z,41.08
2019-04-14T13:23:11.645Z,39.75
2019-04-14T13:25:37.238Z,39.61
2019-04-14T13:28:02.973Z,39.82
2019-04-14T13:30:31.936Z,39.94
2019-04-14T13:32:57.515Z,40.01
2019-04-14T13:35:23.057Z,40.11
2019-04-14T13:37:48.564Z,39.54
2019-04-14T13:40:14.579Z,39.82
2019-04-14T13:42:40.144Z,40.67
2019-04-14T13:45:06.296Z,39.49
2019-04-14T13:47:31.768Z,39.92
2019-04-14T13:49:57.534Z,40.20
2019-04-14T13:52:24.605Z,40.41
2019-04-14T13:54:50.323Z,39.94
2019-04-14T13:57:16.076Z,40.41
2019-04-14T13:59:41.613Z,40.98
2019-04-14T14:02:07.581Z,40.98
2019-04-14T14:04:33.173Z,40.45
2019-04-14T14:06:58.912Z,40.40
2019-04-14T14:09:24.606Z,40.13
2019-04-14T14:12:01.918Z,40.21
2019-04-14T14:14:55.414Z,40.06
2019-04-14T14:17:48.871Z,40.79
2019-04-14T14:20:19.030Z,40.66
2019-04-14T14:23:06.432Z,40.55
2019-04-14T14:25:38.627Z,40.19
2019-04-14T14:28:05.311Z,39.55
2019-04-14T14:30:30.863Z,39.71
2019-04-14T14:32:56.415Z,39.72
2019-04-14T14:35:21.913Z,39.38
2019-04-14T14:37:47.487Z,39.75
2019-04-14T14:40:13.096Z,38.86
2019-04-14T14:42:38.899Z,39.66
2019-04-14T14:45:37.182Z,40.15
2019-04-14T14:48:27.749Z,40.93
2019-04-14T14:51:11.151Z,41.50
2019-04-14T14:53:36.779Z,41.24
2019-04-14T14:56:02.375Z,40.83
2019-04-14T14:58:28.253Z,41.24
2019-04-14T15:00:53.867Z,41.13
2019-04-14T15:03:19.520Z,40.55
2019-04-14T15:05:45.231Z,40.84
2019-04-14T15:08:10.780Z,40.37
2019-04-14T15:10:36.555Z,41.06
2019-04-14T15:13:02.209Z,40.72
2019-04-14T15:15:27.862Z,40.77
2019-04-14T15:17:53.394Z,41.20
2019-04-14T15:20:19.242Z,41.01
2019-04-14T15:22:44.813Z,41.03
2019-04-14T15:25:10.636Z,41.28
2019-04-14T15:27:36.655Z,42.22
2019-04-14T15:30:02.623Z,41.87
2019-04-14T15:32:28.567Z,42.45
2019-04-14T15:34:54.322Z,42.08
2019-04-14T15:37:20.100Z,41.36
2019-04-14T15:39:45.995Z,41.97
2019-04-14T15:42:11.766Z,40.81
2019-04-14T15:44:37.568Z,41.45
2019-04-14T15:47:03.364Z,41.27
2019-04-14T15:49:29.176Z,42.06
2019-04-14T15:51:55.297Z,42.09
2019-04-14T15:54:21.376Z,42.73
2019-04-14T15:57:18.742Z,42.09
2019-04-14T16:00:06.337Z,41.74
2019-04-14T16:02:44.070Z,42.22
2019-04-14T16:05:30.907Z,42.28
2019-04-14T16:08:07.572Z,42.51
2019-04-14T16:10:40.947Z,42.88
2019-04-14T16:13:12.137Z,43.33
2019-04-14T16:15:59.758Z,42.97
2019-04-14T16:18:47.627Z,43.66
2019-04-14T16:21:13.488Z,42.84
2019-04-14T16:23:49.951Z,42.43
2019-04-14T16:26:16.839Z,42.77
2019-04-14T16:28:49.279Z,42.79
2019-04-14T16:31:34.013Z,42.61
2019-04-14T16:34:21.600Z,43.14
2019-04-14T16:36:47.767Z,43.29
2019-04-14T16:39:13.635Z,43.81
2019-04-14T16:41:39.470Z,43.30
2019-04-14T16:44:05.273Z,43.94
2019-04-14T16:46:31.160Z,44.07
2019-04-14T16:48:58.275Z,44.32
2019-04-14T16:51:29.068Z,44.29
2019-04-14T16:54:02.883Z,44.57
2019-04-14T16:56:32.913Z,45.37
2019-04-14T16:59:02.709Z,45.58
2019-04-14T17:01:33.138Z,46.06
2019-04-14T17:03:58.985Z,46.00
2019-04-14T17:06:24.939Z,46.15
2019-04-14T17:08:51.072Z,46.43
2019-04-14T17:11:16.997Z,46.17
2019-04-14T17:13:46.788Z,45.80
2019-04-14T17:16:37.799Z,45.39
2019-04-14T17:19:12.299Z,45.19
2019-04-14T17:22:06.008Z,45.47
2019-04-14T17:25:02.371Z,45.51
2019-04-14T17:27:49.128Z,45.61
2019-04-14T17:30:25.011Z,45.62
2019-04-14T17:33:01.528Z,45.76
2019-04-14T17:36:01.547Z,46.21
2019-04-14T17:38:40.652Z,45.98
2019-04-14T17:41:28.339Z,46.39
2019-04-14T17:44:01.174Z,46.40
2019-04-14T17:46:46.213Z,46.96
2019-04-14T17:49:24.579Z,46.98
2019-04-14T17:52:10.772Z,47.27
2019-04-14T17:54:50.443Z,47.34
2019-04-14T17:57:47.713Z,47.58
2019-04-14T18:00:32.750Z,47.86
2019-04-14T18:03:01.604Z,47.97
2019-04-14T18:05:35.321Z,47.60
2019-04-14T18:08:20.049Z,48.01
2019-04-14T18:11:06.444Z,48.21
2019-04-14T18:14:03.526Z,49.42
2019-04-14T18:16:38.262Z,49.42
2019-04-14T18:19:31.793Z,49.42
2019-04-14T18:21:57.755Z,49.34
2019-04-14T18:24:23.862Z,49.81
2019-04-14T18:26:50.876Z,49.47
2019-04-14T18:29:49.128Z,49.63
2019-04-14T18:32:43.213Z,49.86
2019-04-14T18:35:31.797Z,48.79
2019-04-14T18:38:26.029Z,47.32
2019-04-14T18:41:04.415Z,47.09
2019-04-14T18:43:52.327Z,48.23
2019-04-14T18:46:52.387Z,48.99
2019-04-14T18:49:24.514Z,49.26
2019-04-14T18:52:15.125Z,49.64
2019-04-14T18:54:57.524Z,50.31
2019-04-14T18:57:32.119Z,50.76
2019-04-14T19:00:23.786Z,50.72
2019-04-14T19:02:49.698Z,50.91
2019-04-14T19:05:15.501Z,51.23
2019-04-14T19:07:41.607Z,51.11
2019-04-14T19:10:08.848Z,51.17
2019-04-14T19:12:49.827Z,51.24
2019-04-14T19:15:38.200Z,51.32
2019-04-14T19:18:17.108Z,51.26
2019-04-14T19:20:46.058Z,51.44
2019-04-14T19:23:12.554Z,51.28
2019-04-14T19:25:38.349Z,51.58
2019-04-14T19:28:04.881Z,51.54
2019-04-14T19:30:31.104Z,51.18
2019-04-14T19:32:57.044Z,51.17
2019-04-14T19:35:23.058Z,51.08
2019-04-14T19:37:49.181Z,51.04
2019-04-14T19:40:15.093Z,50.73
2019-04-14T19:42:41.041Z,51.00
2019-04-14T19:45:07.681Z,51.46
2019-04-14T19:47:33.529Z,52.04
2019-04-14T19:49:59.425Z,51.79
2019-04-14T19:52:25.411Z,51.78
2019-04-14T19:54:51.507Z,51.94
2019-04-14T19:57:17.428Z,51.65
2019-04-14T19:59:43.514Z,51.98
2019-04-14T20:02:10.187Z,52.47
2019-04-14T20:04:36.385Z,53.10
2019-04-14T20:07:02.192Z,53.09
2019-04-14T20:09:30.693Z,52.77
2019-04-14T20:11:55.927Z,53.20
2019-04-14T20:14:23.579Z,53.36
2019-04-14T20:17:24.008Z,53.00
2019-04-14T20:20:08.675Z,53.56
2019-04-14T20:22:53.476Z,53.19
2019-04-14T20:25:33.971Z,53.40
2019-04-14T20:28:04.568Z,54.12
2019-04-14T20:30:34.617Z,53.69
2019-04-14T20:33:00.880Z,54.22
2019-04-14T20:35:26.700Z,54.05
2019-04-14T20:37:53.164Z,54.16
2019-04-14T20:40:19.055Z,54.35
2019-04-14T20:42:44.915Z,54.54
2019-04-14T20:45:14.039Z,54.89
2019-04-14T20:47:39.649Z,54.75
2019-04-14T20:50:07.358Z,54.60
2019-04-14T20:52:32.902Z,55.30
2019-04-14T20:54:58.407Z,55.41
2019-04-14T20:57:23.933Z,55.74
2019-04-14T20:59:49.605Z,55.82
2019-04-14T21:02:46.621Z,56.19
2019-04-14T21:05:31.136Z,56.82
2019-04-14T21:08:15.425Z,57.69
2019-04-14T21:11:15.167Z,57.44
2019-04-14T21:13:51.277Z,57.54
2019-04-14T21:16:25.824Z,57.47
2019-04-14T21:18:55.071Z,58.05
2019-04-14T21:21:38.221Z,57.95
2019-04-14T21:24:24.012Z,58.01
2019-04-14T21:26:57.585Z,58.43
2019-04-14T21:29:41.248Z,58.61
2019-04-14T21:32:12.873Z,58.86
2019-04-14T21:34:56.007Z,59.19
2019-04-14T21:37:46.568Z,59.13
2019-04-14T21:40:20.030Z,59.53
2019-04-14T21:42:46.174Z,59.28
2019-04-14T21:45:11.952Z,59.49
2019-04-14T21:47:37.516Z,59.95
2019-04-14T21:50:02.974Z,59.16
2019-04-14T21:52:40.249Z,59.41
2019-04-14T21:55:06.327Z,59.81
2019-04-14T21:57:49.614Z,60.02
2019-04-14T22:00:35.613Z,59.92
2019-04-14T22:03:20.119Z,60.33
2019-04-14T22:05:52.413Z,60.16
2019-04-14T22:08:25.032Z,60.42
2019-04-14T22:10:57.618Z,61.44
2019-04-14T22:13:23.716Z,61.15
2019-04-14T22:15:49.251Z,61.20
2019-04-14T22:18:15.849Z,61.83
2019-04-14T22:20:41.601Z,62.00
2019-04-14T22:23:11.251Z,62.09
2019-04-14T22:25:36.608Z,61.98
2019-04-14T22:28:02.038Z,61.96
2019-04-14T22:30:27.492Z,62.13
2019-04-14T22:32:52.947Z,62.54
2019-04-14T22:35:18.389Z,62.82
2019-04-14T22:37:43.851Z,62.20
2019-04-14T22:40:09.562Z,62.36
2019-04-14T22:42:35.015Z,62.91
2019-04-14T22:45:00.456Z,63.24
2019-04-14T22:47:25.839Z,62.86
2019-04-14T22:49:51.208Z,62.83
2019-04-14T22:52:16.648Z,62.27
2019-04-14T22:54:42.077Z,62.35
2019-04-14T22:57:07.531Z,62.08
2019-04-14T22:59:33.155Z,61.82
2019-04-14T23:02:14.311Z,62.33
2019-04-14T23:04:57.641Z,62.10
2019-04-14T23:07:47.894Z,62.77
2019-04-14T23:10:30.348Z,62.48
2019-04-14T23:13:06.327Z,63.13
2019-04-14T23:15:50.670Z,64.43
2019-04-14T23:18:24.572Z,62.95
2019-04-14T23:21:03.025Z,62.99
2019-04-14T23:23:36.586Z,62.89
2019-04-14T23:26:02.083Z,63.56
2019-04-14T23:28:27.575Z,63.35
2019-04-14T23:30:53.023Z,63.22
2019-04-14T23:33:18.477Z,63.30
2019-04-14T23:35:43.920Z,63.35
2019-04-14T23:38:09.392Z,64.05
2019-04-14T23:40:34.850Z,64.63
2019-04-14T23:43:08.615Z,63.90
2019-04-14T23:45:34.069Z,64.18
2019-04-14T23:47:59.447Z,63.50
2019-04-14T23:50:24.894Z,63.94
2019-04-14T23:52:50.597Z,64.30
2019-04-14T23:55:16.094Z,64.70
2019-04-14T23:57:41.565Z,64.27
